Time;durP1;ratioP1;P1;durP2;ratioP2;P2;SDS_P1;SDS_P2;PMS_P1;PMS_P2;Temp;Humidity;BMP_temperature;BMP_pressure;BME280_temperature;BME280_humidity;BME280_pressure;Samples;Min_cycle;Max_cycle;Signal;HPM_P1;HPM_P2
2023/12/02 00:02:03;;;;;;;27.83;9.77;;;;;;;-4.70;100.00;101204.81;6083481;19;20011;-77
2023/12/02 00:04:09;;;;;;;24.52;9.52;;;;;;;-4.59;100.00;101198.28;6079249;19;20022;-77
2023/12/02 00:06:14;;;;;;;21.50;9.00;;;;;;;-4.64;100.00;101197.28;6084720;19;20045;-76
2023/12/02 00:08:22;;;;;;;17.95;9.25;;;;;;;-4.68;100.00;101193.78;6085982;19;20010;-76
2023/12/02 00:10:27;;;;;;;21.58;9.02;;;;;;;-4.64;100.00;101185.34;6083757;19;20455;-77
2023/12/02 00:12:32;;;;;;;17.35;7.95;;;;;;;-4.61;100.00;101189.69;6086064;19;20011;-73
2023/12/02 00:14:38;;;;;;;25.15;10.02;;;;;;;-4.48;100.00;101201.13;6084570;19;20048;-75
2023/12/02 00:16:43;;;;;;;17.30;8.50;;;;;;;-4.36;100.00;101201.47;6083293;19;20325;-76
2023/12/02 00:18:48;;;;;;;18.35;8.95;;;;;;;-4.34;100.00;101202.38;6084133;19;20080;-74
2023/12/02 00:20:53;;;;;;;20.98;8.70;;;;;;;-4.24;100.00;101206.03;6084861;19;20011;-74
2023/12/02 00:22:59;;;;;;;22.33;9.70;;;;;;;-4.20;100.00;101200.16;6080612;19;20014;-74
2023/12/02 00:25:08;;;;;;;27.23;9.95;;;;;;;-4.16;100.00;101198.53;6083402;19;20461;-75
2023/12/02 00:27:13;;;;;;;13.35;9.73;;;;;;;-4.14;100.00;101195.16;6082508;19;20006;-74
2023/12/02 00:29:18;;;;;;;16.40;8.88;;;;;;;-4.06;100.00;101191.09;6085549;19;20050;-73
2023/12/02 00:31:22;;;;;;;24.02;12.20;;;;;;;-4.02;100.00;101185.22;6086456;19;20014;-73
2023/12/02 00:33:27;;;;;;;13.57;6.80;;;;;;;-3.97;100.00;101186.19;6086791;19;20015;-73
2023/12/02 00:35:32;;;;;;;28.70;10.82;;;;;;;-3.90;100.00;101192.34;6086816;19;20010;-73
2023/12/02 00:37:35;;;;;;;22.67;10.63;;;;;;;-3.86;100.00;101178.75;6086310;19;20451;-73
2023/12/02 00:39:40;;;;;;;18.15;9.68;;;;;;;-3.82;100.00;101164.28;6087496;19;20460;-73
2023/12/02 00:41:47;;;;;;;15.32;8.60;;;;;;;-3.76;100.00;101185.84;6080953;19;20598;-74
2023/12/02 00:43:52;;;;;;;28.65;11.10;;;;;;;-3.68;100.00;101198.88;6085006;19;20498;-74
2023/12/02 00:45:55;;;;;;;18.60;8.20;;;;;;;-3.67;100.00;101198.03;6084480;19;20017;-74
2023/12/02 00:48:00;;;;;;;16.40;7.82;;;;;;;-3.57;100.00;101182.00;6079902;19;20554;-73
2023/12/02 00:50:06;;;;;;;17.55;9.23;;;;;;;-3.56;100.00;101182.84;6085209;19;20009;-74
2023/12/02 00:52:11;;;;;;;20.67;10.90;;;;;;;-3.59;100.00;101191.34;6081913;19;20512;-74
2023/12/02 00:54:16;;;;;;;20.35;8.85;;;;;;;-3.56;100.00;101194.00;6080140;19;20002;-74
2023/12/02 00:56:21;;;;;;;22.35;8.85;;;;;;;-3.50;100.00;101182.13;6084743;19;20077;-74
2023/12/02 00:58:29;;;;;;;16.60;8.30;;;;;;;-3.50;100.00;101192.41;6082387;19;20015;-73
2023/12/02 01:00:45;;;;;;;20.30;10.02;;;;;;;-3.43;100.00;101195.13;6083345;19;20467;-73
2023/12/02 01:02:49;;;;;;;19.45;10.43;;;;;;;-3.39;100.00;101185.81;6081856;19;20113;-74
2023/12/02 01:04:52;;;;;;;28.75;10.85;;;;;;;-3.39;100.00;101185.81;6082206;19;20015;-75
2023/12/02 01:06:59;;;;;;;;;;;;;;;-3.37;100.00;101189.25;6083697;19;20289;-74
2023/12/02 01:09:04;;;;;;;15.57;8.02;;;;;;;-3.32;100.00;101187.66;6083623;19;19910;-73
2023/12/02 01:11:09;;;;;;;20.10;8.63;;;;;;;-3.29;100.00;101181.72;6073231;19;20010;-74
2023/12/02 01:13:15;;;;;;;10.40;9.00;;;;;;;-3.25;100.00;101174.13;6083507;19;20804;-74
2023/12/02 01:15:22;;;;;;;21.48;8.75;;;;;;;-3.27;100.00;101165.50;6084132;19;20039;-77
2023/12/02 01:17:27;;;;;;;24.05;11.73;;;;;;;-3.25;100.00;101173.25;6084265;19;20033;-77
2023/12/02 01:19:32;;;;;;;19.92;9.05;;;;;;;-3.28;100.00;101184.34;6084931;19;20039;-73
2023/12/02 01:21:39;;;;;;;13.85;8.43;;;;;;;-3.29;100.00;101195.47;6080881;19;20472;-73
2023/12/02 01:23:43;;;;;;;15.25;7.78;;;;;;;-3.31;100.00;101197.13;6083736;19;20380;-73
2023/12/02 01:25:46;;;;;;;18.95;9.63;;;;;;;-3.29;100.00;101192.91;6085324;19;20006;-72
2023/12/02 01:27:51;;;;;;;33.72;12.18;;;;;;;-3.24;100.00;101193.81;6082873;19;20006;-73
2023/12/02 01:29:53;;;;;;;17.83;9.27;;;;;;;-3.18;100.00;101183.69;6080927;19;20007;-73
2023/12/02 01:32:04;;;;;;;26.27;10.55;;;;;;;-3.15;100.00;101200.91;6080313;19;20012;-73
2023/12/02 01:34:15;;;;;;;20.98;10.00;;;;;;;-3.22;100.00;101192.16;6086689;19;20007;-84
2023/12/02 01:36:34;;;;;;;21.88;8.48;;;;;;;-3.23;100.00;101189.59;5992509;19;2006320;-86
2023/12/02 01:38:47;;;;;;;20.83;9.75;;;;;;;-3.21;100.00;101196.50;6097509;19;20611;-83
2023/12/02 01:40:55;;;;;;;22.48;10.90;;;;;;;-3.21;100.00;101195.59;6094399;19;20023;-84
2023/12/02 01:43:00;;;;;;;22.33;9.82;;;;;;;-3.22;100.00;101202.44;6095448;19;20011;-85
2023/12/02 01:45:25;;;;;;;18.70;10.32;;;;;;;-3.17;100.00;101193.13;6096060;19;20018;-85
2023/12/02 01:47:37;;;;;;;21.02;7.45;;;;;;;-3.11;100.00;101193.28;6094998;19;20019;-85
2023/12/02 01:49:54;;;;;;;19.63;8.25;;;;;;;-3.06;100.00;101192.50;6095434;19;20093;-84
2023/12/02 01:52:03;;;;;;;14.85;7.07;;;;;;;-3.01;100.00;101196.03;6082135;19;22985;-77
2023/12/02 01:54:09;;;;;;;17.00;8.35;;;;;;;-2.99;100.00;101189.22;6072972;19;20476;-77
2023/12/02 01:56:18;;;;;;;15.80;8.07;;;;;;;-2.97;100.00;101196.13;6080123;19;20017;-77
2023/12/02 01:58:23;;;;;;;19.25;8.00;;;;;;;-2.92;100.00;101191.09;6079621;19;20010;-76
2023/12/02 02:00:27;;;;;;;22.15;9.93;;;;;;;-2.94;100.00;101190.19;6079142;19;20010;-75
2023/12/02 02:02:39;;;;;;;20.63;9.82;;;;;;;-2.92;100.00;101193.66;6081547;19;20010;-76
2023/12/02 02:04:46;;;;;;;18.27;7.28;;;;;;;-2.93;100.00;101187.63;6079040;19;20047;-76
2023/12/02 02:06:51;;;;;;;16.17;8.50;;;;;;;-2.91;100.00;101188.53;6082467;19;20356;-75
2023/12/02 02:08:56;;;;;;;23.85;9.73;;;;;;;-2.91;100.00;101185.97;6080244;19;20029;-75
2023/12/02 02:11:02;;;;;;;20.02;10.05;;;;;;;-2.93;100.00;101191.91;6080946;19;20002;-76
2023/12/02 02:13:07;;;;;;;25.77;14.27;;;;;;;-2.97;100.00;101191.00;6081014;19;20015;-76
2023/12/02 02:15:17;;;;;;;29.25;9.38;;;;;;;-2.90;100.00;101191.97;6081449;19;20015;-75
2023/12/02 02:17:23;;;;;;;23.10;10.18;;;;;;;-2.89;100.00;101184.28;6083443;19;20323;-77
2023/12/02 02:19:30;;;;;;;22.38;9.25;;;;;;;-2.90;100.00;101184.25;6079163;19;20038;-77
2023/12/02 02:21:38;;;;;;;19.10;8.68;;;;;;;-2.93;100.00;101179.06;6080086;19;20470;-78
2023/12/02 02:23:45;;;;;;;25.02;9.75;;;;;;;-2.92;100.00;101184.25;6081545;19;20014;-77
2023/12/02 02:25:52;;;;;;;17.17;8.10;;;;;;;-2.90;100.00;101186.81;6088105;19;20011;-77
2023/12/02 02:27:57;;;;;;;20.90;12.25;;;;;;;-2.88;100.00;101195.44;6085756;19;21459;-77
2023/12/02 02:30:02;;;;;;;18.35;8.38;;;;;;;-2.80;100.00;101203.31;6088935;19;20017;-75
2023/12/02 02:32:08;;;;;;;15.65;9.00;;;;;;;-2.78;100.00;101205.06;6089501;19;20010;-75
2023/12/02 02:34:13;;;;;;;26.55;11.43;;;;;;;-2.75;100.00;101192.28;6090128;19;20020;-75
2023/12/02 02:36:18;;;;;;;23.20;9.32;;;;;;;-2.75;100.00;101192.28;6091493;19;20014;-77
2023/12/02 02:38:26;;;;;;;14.90;9.15;;;;;;;-2.72;100.00;101189.75;6090678;19;20007;-77
2023/12/02 02:40:31;;;;;;;20.35;9.48;;;;;;;-2.80;100.00;101183.59;6079553;19;20007;-75
2023/12/02 02:42:36;;;;;;;20.63;9.02;;;;;;;-2.79;100.00;101195.63;6082049;19;20010;-77
2023/12/02 02:44:44;;;;;;;22.95;10.32;;;;;;;-2.77;100.00;101193.06;6082289;19;20006;-75
2023/12/02 02:46:47;;;;;;;25.65;10.82;;;;;;;-2.76;100.00;101199.97;6084700;19;20043;-77
2023/12/02 02:48:52;;;;;;;19.70;8.05;;;;;;;-2.69;100.00;101201.81;6087331;19;20527;-75
2023/12/02 02:50:56;;;;;;;23.75;9.13;;;;;;;-2.62;100.00;101201.09;6083145;19;20013;-76
2023/12/02 02:53:01;;;;;;;15.63;10.75;;;;;;;-2.69;100.00;101202.66;6080900;19;20011;-75
2023/12/02 02:55:10;;;;;;;23.80;10.48;;;;;;;-2.72;100.00;101197.47;6082392;19;20440;-76
2023/12/02 02:57:15;;;;;;;22.10;9.10;;;;;;;-2.68;100.00;101201.00;6080203;19;20015;-76
2023/12/02 02:59:17;;;;;;;25.10;11.07;;;;;;;-2.72;100.00;101202.63;6077701;19;20298;-77
2023/12/02 03:01:23;;;;;;;21.75;8.70;;;;;;;-2.76;100.00;101200.84;6079154;19;20555;-76
2023/12/02 03:03:28;;;;;;;18.15;8.52;;;;;;;-2.73;100.00;101197.47;6079849;19;20037;-77
2023/12/02 03:05:33;;;;;;;21.27;8.38;;;;;;;-2.80;100.00;101188.75;6079890;19;20342;-76
2023/12/02 03:07:36;;;;;;;12.90;7.68;;;;;;;-2.84;100.00;101191.22;6079672;19;20086;-76
2023/12/02 03:09:41;;;;;;;19.67;8.75;;;;;;;-2.88;100.00;101200.59;6080384;19;20006;-75
2023/12/02 03:11:50;;;;;;;22.35;10.18;;;;;;;-2.85;100.00;101200.63;6080095;19;20011;-76
2023/12/02 03:13:55;;;;;;;18.77;8.88;;;;;;;-2.88;100.00;101205.72;6079856;19;20010;-76
2023/12/02 03:16:00;;;;;;;16.20;7.32;;;;;;;-2.88;100.00;101200.59;6079773;19;20045;-76
2023/12/02 03:18:05;;;;;;;23.38;10.90;;;;;;;-2.92;100.00;101202.25;6075792;19;20009;-77
2023/12/02 03:20:11;;;;;;;26.95;10.98;;;;;;;-2.96;100.00;101197.00;6078701;19;20014;-75
2023/12/02 03:22:16;;;;;;;14.85;9.23;;;;;;;-3.00;100.00;101203.78;6080002;19;19998;-75
2023/12/02 03:24:26;;;;;;;20.23;7.88;;;;;;;-3.01;100.00;101203.75;6078198;19;20007;-76
2023/12/02 03:26:31;;;;;;;22.33;9.38;;;;;;;-3.07;100.00;101198.47;6078149;19;20850;-76
2023/12/02 03:28:38;;;;;;;14.18;8.93;;;;;;;-3.14;100.00;101193.19;6078785;19;20638;-76
2023/12/02 03:30:43;;;;;;;23.58;9.38;;;;;;;-3.17;100.00;101190.56;6080486;19;20018;-75
2023/12/02 03:32:48;;;;;;;12.93;9.02;;;;;;;-3.16;100.00;101189.75;6082950;19;20304;-75
2023/12/02 03:34:56;;;;;;;19.38;8.77;;;;;;;-3.20;100.00;101187.06;6086514;19;20006;-75
2023/12/02 03:37:01;;;;;;;22.10;10.95;;;;;;;-3.18;100.00;101198.25;6087402;19;20014;-75
2023/12/02 03:39:12;;;;;;;23.73;11.60;;;;;;;-3.16;100.00;101183.72;6088316;19;20053;-75
2023/12/02 03:41:17;;;;;;;21.85;9.52;;;;;;;-3.19;100.00;101187.09;6089639;19;20034;-75
2023/12/02 03:43:19;;;;;;;18.65;9.55;;;;;;;-3.20;100.00;101194.78;6091607;19;20050;-75
2023/12/02 03:45:27;;;;;;;16.67;9.63;;;;;;;-3.22;100.00;101193.88;6093088;19;20494;-75
2023/12/02 03:47:32;;;;;;;21.45;10.55;;;;;;;-3.28;100.00;101194.63;6097616;19;20014;-76
2023/12/02 03:49:35;;;;;;;14.82;8.90;;;;;;;-3.26;100.00;101192.94;6096801;19;20011;-76
2023/12/02 03:51:40;;;;;;;19.13;8.10;;;;;;;-3.24;100.00;101196.41;6091934;19;20017;-75
2023/12/02 03:53:47;;;;;;;17.80;8.52;;;;;;;-3.25;100.00;101198.97;6096242;19;20014;-75
2023/12/02 03:55:53;;;;;;;21.42;8.45;;;;;;;-3.27;100.00;101193.78;6097622;19;20010;-76
2023/12/02 03:57:58;;;;;;;22.20;10.05;;;;;;;-3.31;100.00;101199.69;6095612;19;20067;-76
2023/12/02 04:00:10;;;;;;;21.13;8.82;;;;;;;-3.35;100.00;101201.31;6093614;19;20102;-76
2023/12/02 04:02:19;;;;;;;15.25;9.02;;;;;;;-3.39;100.00;101206.38;6091058;19;20026;-76
2023/12/02 04:04:24;;;;;;;17.25;8.88;;;;;;;-3.44;100.00;101206.25;6090482;19;20026;-73
2023/12/02 04:06:29;;;;;;;16.05;8.68;;;;;;;-3.47;100.00;101211.34;6086670;19;20007;-72
2023/12/02 04:08:34;;;;;;;21.05;9.02;;;;;;;-3.50;100.00;101212.94;6081343;19;19999;-73
2023/12/02 04:10:41;;;;;;;20.17;9.93;;;;;;;-3.54;100.00;101209.44;6082824;19;20589;-72
2023/12/02 04:12:47;;;;;;;26.73;11.15;;;;;;;-3.56;100.00;101214.53;6082499;19;20006;-73
2023/12/02 04:14:52;;;;;;;17.98;8.88;;;;;;;-3.56;100.00;101222.25;6083490;19;20396;-73
2023/12/02 04:16:56;;;;;;;19.65;9.98;;;;;;;-3.57;100.00;101230.78;6083478;19;20897;-73
2023/12/02 04:19:04;;;;;;;19.00;8.80;;;;;;;-3.59;100.00;101240.16;6083806;19;20014;-72
2023/12/02 04:21:09;;;;;;;23.60;8.50;;;;;;;-3.53;100.00;101235.19;6085930;19;20094;-75
2023/12/02 04:23:22;;;;;;;20.90;9.40;;;;;;;-3.43;100.00;101227.69;6085693;19;20483;-77
2023/12/02 04:25:28;;;;;;;16.15;8.18;;;;;;;-3.39;100.00;101235.50;6083759;19;20015;-75
2023/12/02 04:27:34;;;;;;;19.50;8.82;;;;;;;-3.36;100.00;101229.56;6083616;19;20011;-76
2023/12/02 04:29:41;;;;;;;20.35;10.05;;;;;;;-3.42;100.00;101237.09;6086480;19;20348;-76
2023/12/02 04:31:46;;;;;;;17.77;9.77;;;;;;;-3.48;100.00;101230.13;6087162;19;20015;-76
2023/12/02 04:33:51;;;;;;;19.15;9.23;;;;;;;-3.51;100.00;101232.63;6085519;19;20020;-76
2023/12/02 04:35:59;;;;;;;22.83;8.82;;;;;;;-3.55;100.00;101230.84;6082550;19;20003;-76
2023/12/02 04:38:04;;;;;;;18.20;9.13;;;;;;;-3.57;100.00;101242.78;6084878;19;20406;-75
2023/12/02 04:40:12;;;;;;;19.08;7.75;;;;;;;-3.61;100.00;101236.69;6081567;19;20352;-76
2023/12/02 04:42:14;;;;;;;19.23;8.25;;;;;;;-3.63;100.00;101238.38;6082666;19;20019;-76
2023/12/02 04:44:22;;;;;;;17.80;8.48;;;;;;;-3.63;100.00;101225.53;6084157;19;20051;-76
2023/12/02 04:46:27;;;;;;;25.02;10.93;;;;;;;-3.68;100.00;101224.56;6085066;19;20013;-76
2023/12/02 04:48:34;;;;;;;21.80;9.25;;;;;;;-3.69;100.00;101227.94;6084015;19;20007;-74
2023/12/02 04:50:40;;;;;;;17.85;9.88;;;;;;;-3.71;100.00;101232.19;6082008;19;20803;-71
2023/12/02 04:52:48;;;;;;;12.77;7.22;;;;;;;-3.73;100.00;101236.41;6079713;19;20014;-74
2023/12/02 04:54:54;;;;;;;17.83;11.65;;;;;;;-3.74;100.00;101244.94;6083222;19;20012;-72
2023/12/02 04:56:59;;;;;;;25.05;10.38;;;;;;;-3.78;100.00;101245.69;6078252;19;20076;-72
2023/12/02 04:59:05;;;;;;;14.95;7.80;;;;;;;-3.76;100.00;101256.88;6079582;19;20018;-72
2023/12/02 05:01:08;;;;;;;23.73;10.32;;;;;;;-3.78;100.00;101248.25;6080305;19;20423;-73
2023/12/02 05:03:17;;;;;;;26.45;9.02;;;;;;;-3.75;100.00;101253.47;6081112;19;20011;-73
2023/12/02 05:05:22;;;;;;;15.57;9.85;;;;;;;-3.77;100.00;101250.00;6080609;19;20006;-73
2023/12/02 05:07:27;;;;;;;18.02;8.35;;;;;;;-3.78;100.00;101250.84;6079816;19;20372;-73
2023/12/02 05:09:35;;;;;;;23.52;8.65;;;;;;;-3.79;100.00;101256.78;6083128;19;20483;-73
2023/12/02 05:11:40;;;;;;;13.02;7.40;;;;;;;-3.86;100.00;101263.47;6080945;19;20019;-73
2023/12/02 05:13:42;;;;;;;22.40;10.02;;;;;;;-3.87;100.00;101264.31;6082285;19;20015;-73
2023/12/02 05:15:47;;;;;;;19.58;9.85;;;;;;;-3.86;100.00;101267.75;6080241;19;20006;-75
2023/12/02 05:17:52;;;;;;;17.95;11.23;;;;;;;-3.80;100.00;101267.91;6082847;19;20352;-74
2023/12/02 05:20:00;;;;;;;18.08;9.70;;;;;;;-3.69;100.00;101261.31;6083596;19;20094;-74
2023/12/02 05:22:02;;;;;;;21.65;9.15;;;;;;;-3.75;100.00;101259.47;6081541;19;20002;-74
2023/12/02 05:24:08;;;;;;;21.60;9.10;;;;;;;-3.80;100.00;101265.31;6083618;19;20385;-77
2023/12/02 05:26:16;;;;;;;19.25;10.63;;;;;;;-3.89;100.00;101272.81;6088097;19;20014;-77
2023/12/02 05:28:22;;;;;;;25.63;10.32;;;;;;;-3.92;100.00;101277.84;6090516;19;20003;-76
2023/12/02 05:30:27;;;;;;;19.75;9.40;;;;;;;-4.00;100.00;101269.97;6090315;19;20018;-75
2023/12/02 05:32:32;;;;;;;21.08;9.70;;;;;;;-4.02;100.00;101269.94;6089221;19;20127;-73
2023/12/02 05:34:35;;;;;;;25.15;9.68;;;;;;;-4.03;100.00;101273.34;6090908;19;20038;-72
2023/12/02 05:36:40;;;;;;;17.88;7.53;;;;;;;-4.00;100.00;101269.97;6086640;19;20011;-75
2023/12/02 05:38:42;;;;;;;23.77;10.20;;;;;;;-4.03;100.00;101268.19;6085899;19;20134;-73
2023/12/02 05:40:50;;;;;;;24.50;9.88;;;;;;;-4.02;100.00;101275.06;6085227;19;20003;-74
2023/12/02 05:43:00;;;;;;;19.35;9.93;;;;;;;-4.08;100.00;101277.47;6087625;19;20837;-75
2023/12/02 05:45:06;;;;;;;18.67;8.88;;;;;;;-4.07;100.00;101281.78;6082041;19;20006;-74
2023/12/02 05:47:12;;;;;;;21.10;8.73;;;;;;;-4.14;100.00;101289.25;6088061;19;20078;-71
2023/12/02 05:49:17;;;;;;;20.70;10.00;;;;;;;-4.22;100.00;101295.03;6082951;19;20038;-71
2023/12/02 05:51:25;;;;;;;18.60;8.15;;;;;;;-4.23;100.00;101293.31;6082900;19;20007;-74
2023/12/02 05:53:34;;;;;;;16.90;8.70;;;;;;;-4.28;100.00;101291.47;6079440;19;20011;-74
2023/12/02 05:55:43;;;;;;;19.58;11.00;;;;;;;-4.36;100.00;101288.69;6080100;19;20011;-73
2023/12/02 05:57:49;;;;;;;22.35;9.55;;;;;;;-4.35;100.00;101294.69;6078287;19;20005;-73
2023/12/02 05:59:56;;;;;;;20.80;8.68;;;;;;;-4.36;100.00;101298.09;6083948;19;20006;-74
2023/12/02 06:01:59;;;;;;;19.92;8.43;;;;;;;-4.37;100.00;101297.22;6082394;19;20414;-73
2023/12/02 06:04:04;;;;;;;20.85;10.45;;;;;;;-4.37;100.00;101298.91;6082927;19;20007;-73
2023/12/02 06:06:13;;;;;;;16.48;11.25;;;;;;;-4.43;100.00;101295.34;6083159;19;20017;-73
2023/12/02 06:08:18;;;;;;;18.83;7.38;;;;;;;-4.46;100.00;101295.25;6082700;19;20483;-73
2023/12/02 06:10:22;;;;;;;19.98;7.40;;;;;;;-4.51;100.00;101299.38;6082905;19;20007;-73
2023/12/02 06:12:27;;;;;;;16.77;7.85;;;;;;;-4.53;100.00;101300.16;6081871;19;20439;-73
2023/12/02 06:14:34;;;;;;;12.50;7.57;;;;;;;-4.54;100.00;101298.44;6082718;19;20038;-73
2023/12/02 06:16:42;;;;;;;19.05;10.00;;;;;;;-4.58;100.00;101296.59;6077908;19;20010;-73
2023/12/02 06:18:47;;;;;;;23.88;11.40;;;;;;;-4.56;100.00;101300.94;6082631;19;19999;-75
2023/12/02 06:20:53;;;;;;;15.43;7.70;;;;;;;-4.54;100.00;101304.44;6082495;19;20062;-76
2023/12/02 06:23:01;;;;;;;16.80;8.13;;;;;;;-4.50;100.00;101302.81;6080754;19;20479;-76
2023/12/02 06:25:07;;;;;;;19.33;8.32;;;;;;;-4.52;100.00;101307.91;6083862;19;20028;-73
2023/12/02 06:27:19;;;;;;;23.80;11.15;;;;;;;-4.54;100.00;101314.69;5977889;19;2004880;-73
2023/12/02 06:29:22;;;;;;;15.43;9.90;;;;;;;-4.55;100.00;101317.22;6080562;19;20043;-73
2023/12/02 06:31:27;;;;;;;14.25;8.73;;;;;;;-4.50;100.00;101313.06;6081725;19;20824;-73
2023/12/02 06:33:34;;;;;;;9.85;8.18;;;;;;;-4.50;100.00;101311.41;6081909;19;20019;-73
2023/12/02 06:35:41;;;;;;;16.02;8.32;;;;;;;-4.44;100.00;101318.41;6080933;19;20032;-76
2023/12/02 06:37:46;;;;;;;24.95;10.48;;;;;;;-4.48;100.00;101319.97;6080342;19;20023;-75
2023/12/02 06:39:51;;;;;;;18.23;8.60;;;;;;;-4.50;100.00;101321.66;6081746;19;20007;-76
2023/12/02 06:41:56;;;;;;;19.50;10.07;;;;;;;-4.51;100.00;101319.03;6083008;19;20006;-76
2023/12/02 06:44:02;;;;;;;21.27;10.60;;;;;;;-4.54;100.00;101330.06;6080654;19;20018;-76
2023/12/02 06:46:08;;;;;;;26.48;10.90;;;;;;;-4.55;100.00;101330.06;6084360;19;20038;-76
2023/12/02 06:48:15;;;;;;;26.25;8.75;;;;;;;-4.53;100.00;101334.41;6084590;19;20561;-76
2023/12/02 06:50:23;;;;;;;26.33;10.73;;;;;;;-4.57;100.00;101337.69;6083035;19;20021;-76
2023/12/02 06:52:29;;;;;;;18.50;8.57;;;;;;;-4.50;100.00;101341.28;6079165;19;20020;-76
2023/12/02 06:54:38;;;;;;;19.95;9.38;;;;;;;-4.52;100.00;101351.50;6082855;19;20014;-75
2023/12/02 06:56:41;;;;;;;23.20;9.15;;;;;;;-4.45;100.00;101350.88;6077820;19;20085;-76
2023/12/02 06:58:47;;;;;;;23.85;10.63;;;;;;;-4.48;100.00;101349.91;6080332;19;20005;-75
2023/12/02 07:00:52;;;;;;;19.90;12.13;;;;;;;-4.45;100.00;101352.53;6084231;19;20010;-75
2023/12/02 07:02:57;;;;;;;24.02;10.20;;;;;;;-4.51;100.00;101354.94;6081862;19;20074;-77
2023/12/02 07:05:00;;;;;;;21.15;11.68;;;;;;;-4.52;100.00;101359.22;6083667;19;20021;-74
2023/12/02 07:07:08;;;;;;;26.25;7.95;;;;;;;-4.50;100.00;101357.56;6087369;19;20014;-74
2023/12/02 07:09:16;;;;;;;18.17;9.70;;;;;;;-4.52;100.00;101361.78;6089416;19;20751;-73
2023/12/02 07:11:24;;;;;;;15.85;9.00;;;;;;;-4.54;100.00;101365.97;6089870;19;20002;-73
2023/12/02 07:13:29;;;;;;;24.92;10.63;;;;;;;-4.55;100.00;101371.94;6079464;19;20038;-74
2023/12/02 07:15:35;;;;;;;22.13;10.32;;;;;;;-4.50;100.00;101372.06;6086925;19;20494;-74
2023/12/02 07:17:46;;;;;;;35.28;13.52;;;;;;;-4.38;100.00;101374.13;6090005;19;20086;-74
2023/12/02 07:19:51;;;;;;;17.88;8.95;;;;;;;-4.30;100.00;101370.94;6088865;19;20526;-75
2023/12/02 07:21:56;;;;;;;19.88;10.70;;;;;;;-4.17;100.00;101372.16;6085286;19;20555;-74
2023/12/02 07:24:04;;;;;;;15.25;10.23;;;;;;;-4.18;100.00;101369.56;6089740;19;20581;-74
2023/12/02 07:26:10;;;;;;;18.48;7.65;;;;;;;-4.20;100.00;101377.22;6088622;19;20440;-74
2023/12/02 07:28:15;;;;;;;22.35;9.90;;;;;;;-4.18;100.00;101369.56;6091476;19;20041;-74
2023/12/02 07:30:20;;;;;;;36.17;10.55;;;;;;;-4.02;100.00;101380.31;6090911;19;20031;-74
2023/12/02 07:32:30;;;;;;;27.20;10.25;;;;;;;-3.98;100.00;101374.44;6089005;19;20023;-74
2023/12/02 07:34:35;;;;;;;28.50;12.88;;;;;;;-3.93;100.00;101371.97;6091612;19;20035;-74
2023/12/02 07:36:40;;;;;;;25.25;10.75;;;;;;;-3.93;100.00;101382.25;6091611;19;20074;-74
2023/12/02 07:38:43;;;;;;;30.40;10.57;;;;;;;-3.94;100.00;101382.22;6088194;19;20081;-73
2023/12/02 07:40:50;;;;;;;20.83;13.25;;;;;;;-3.95;100.00;101377.88;6089810;19;20085;-77
2023/12/02 07:42:55;;;;;;;23.48;10.48;;;;;;;-3.93;100.00;101383.94;6092469;19;20034;-76
2023/12/02 07:45:00;;;;;;;20.80;9.32;;;;;;;-3.90;100.00;101386.59;6091830;19;20017;-75
2023/12/02 07:47:05;;;;;;;19.92;11.90;;;;;;;-3.77;100.00;101394.66;6085909;19;20026;-76
2023/12/02 07:49:10;;;;;;;29.55;9.90;;;;;;;-3.67;100.00;101385.50;6086181;19;20486;-73
2023/12/02 07:51:15;;;;;;;23.50;10.75;;;;;;;-3.67;100.00;101392.34;6086716;19;20350;-73
2023/12/02 07:53:20;;;;;;;24.98;10.75;;;;;;;-3.71;100.00;101393.09;6083616;19;20546;-73
2023/12/02 07:55:25;;;;;;;24.27;11.52;;;;;;;-3.71;100.00;101391.41;6082600;19;20686;-73
2023/12/02 07:57:33;;;;;;;26.17;11.13;;;;;;;-3.71;100.00;101400.78;6083658;19;20417;-72
2023/12/02 07:59:38;;;;;;;25.48;10.95;;;;;;;-3.64;100.00;101406.13;6086121;19;20354;-73
2023/12/02 08:01:43;;;;;;;29.77;10.82;;;;;;;-3.66;100.00;101407.81;6074714;19;20015;-73
2023/12/02 08:03:48;;;;;;;36.42;15.27;;;;;;;-3.66;100.00;101412.94;6083886;19;20292;-73
2023/12/02 08:05:53;;;;;;;20.63;10.88;;;;;;;-3.64;100.00;101408.69;6076888;19;20045;-73
2023/12/02 08:07:58;;;;;;;22.83;9.65;;;;;;;-3.61;100.00;101410.47;6080318;19;20014;-73
2023/12/02 08:10:05;;;;;;;25.52;10.82;;;;;;;-3.60;100.00;101420.81;6081127;19;20024;-73
2023/12/02 08:12:11;;;;;;;19.60;11.07;;;;;;;-3.56;100.00;101425.19;6087311;19;20011;-75
2023/12/02 08:14:21;;;;;;;24.05;11.05;;;;;;;-3.55;100.00;101426.06;6085185;19;20295;-71
2023/12/02 08:16:28;;;;;;;23.83;9.50;;;;;;;-3.55;100.00;101426.94;6084707;19;20077;-72
2023/12/02 08:18:33;;;;;;;29.02;9.82;;;;;;;-3.53;100.00;101429.53;6086851;19;20248;-75
2023/12/02 08:20:37;;;;;;;22.60;9.35;;;;;;;-3.54;100.00;101426.09;6091539;19;20550;-73
2023/12/02 08:22:46;;;;;;;26.13;11.65;;;;;;;-3.51;100.00;101422.75;6092800;19;20022;-73
2023/12/02 08:24:53;;;;;;;25.95;11.10;;;;;;;-3.44;100.00;101429.78;6093792;19;20513;-74
2023/12/02 08:26:58;;;;;;;18.88;11.80;;;;;;;-3.41;100.00;101422.16;6092782;19;20026;-75
2023/12/02 08:29:03;;;;;;;18.38;9.32;;;;;;;-3.37;100.00;101425.66;6099332;19;20018;-75
2023/12/02 08:31:13;;;;;;;26.42;10.82;;;;;;;-3.33;100.00;101428.34;6095914;19;20023;-76
2023/12/02 08:33:18;;;;;;;16.58;8.98;;;;;;;-3.27;100.00;101431.91;6096321;19;20046;-76
2023/12/02 08:35:23;;;;;;;22.20;10.93;;;;;;;-3.23;100.00;101438.88;6094608;19;20018;-74
2023/12/02 08:37:28;;;;;;;25.42;12.85;;;;;;;-3.22;100.00;101438.91;6093525;19;20015;-75
2023/12/02 08:39:33;;;;;;;18.98;10.43;;;;;;;-3.20;100.00;101439.81;6091319;19;20015;-75
2023/12/02 08:41:40;;;;;;;33.88;14.13;;;;;;;-3.12;100.00;101445.16;6090412;19;20010;-76
2023/12/02 08:43:45;;;;;;;22.77;11.02;;;;;;;-3.04;100.00;101437.63;6082120;19;20015;-76
2023/12/02 08:45:51;;;;;;;26.40;13.63;;;;;;;-3.04;100.00;101450.50;6088021;19;20381;-77
2023/12/02 08:47:59;;;;;;;30.08;13.00;;;;;;;-2.99;100.00;101434.34;6086108;19;20043;-75
2023/12/02 08:50:12;;;;;;;21.55;10.65;;;;;;;-2.90;100.00;101454.25;6087448;19;20364;-75
2023/12/02 08:52:17;;;;;;;22.67;9.35;;;;;;;-2.89;100.00;101453.44;6082985;19;20511;-76
2023/12/02 08:54:19;;;;;;;17.60;10.82;;;;;;;-2.73;100.00;101449.53;6079755;19;20506;-74
2023/12/02 08:56:26;;;;;;;;;;;;;;;-2.62;100.00;101449.78;6083741;19;20011;-73
2023/12/02 08:58:31;;;;;;;16.48;8.43;;;;;;;-2.51;100.00;101449.19;6084563;19;19925;-74
2023/12/02 09:00:39;;;;;;;28.30;11.38;;;;;;;-2.37;100.00;101446.94;6084128;19;20007;-74
2023/12/02 09:02:44;;;;;;;30.25;12.77;;;;;;;-2.28;100.00;101452.28;6080368;19;20003;-75
2023/12/02 09:04:54;;;;;;;24.48;11.95;;;;;;;-2.16;100.00;101454.22;6082183;19;20038;-73
2023/12/02 09:07:00;;;;;;;19.70;10.02;;;;;;;-2.08;100.00;101456.97;6077104;19;20007;-74
2023/12/02 09:09:08;;;;;;;21.88;12.20;;;;;;;-1.95;100.00;101461.53;6078458;19;20441;-75
2023/12/02 09:11:20;;;;;;;29.02;10.30;;;;;;;-1.90;100.00;101454.78;6082576;19;20027;-74
2023/12/02 09:13:43;;;;;;;28.25;11.13;;;;;;;-1.81;100.00;101462.72;6077973;19;20011;-73
2023/12/02 09:15:48;;;;;;;;;;;;;;;-1.74;100.00;101471.41;6083893;19;20023;-74
2023/12/02 09:18:14;;;;;;;18.05;11.43;;;;;;;-1.64;100.00;101469.88;6084306;19;19918;-74
2023/12/02 09:20:37;;;;;;;28.98;13.27;;;;;;;-1.62;100.00;101478.53;5979488;19;2004551;-74
2023/12/02 09:22:49;;;;;;;24.87;10.70;;;;;;;-1.60;100.00;101480.31;6081845;19;20682;-75
2023/12/02 09:24:57;;;;;;;18.25;8.90;;;;;;;-1.54;100.00;101469.22;6083256;19;20006;-77
2023/12/02 09:26:59;;;;;;;23.70;11.73;;;;;;;-1.51;100.00;101471.00;6078999;19;20007;-76
2023/12/02 09:29:04;;;;;;;28.05;12.32;;;;;;;-1.45;100.00;101468.53;6082317;19;20708;-76
2023/12/02 09:31:14;;;;;;;22.55;12.60;;;;;;;-1.37;100.00;101483.31;6084001;19;20035;-76
2023/12/02 09:33:17;;;;;;;27.60;13.85;;;;;;;-1.31;100.00;101481.69;6083842;19;20011;-76